Time;durP1;ratioP1;P1;durP2;ratioP2;P2;SDS_P1;SDS_P2;PMS_P1;PMS_P2;Temp;Humidity;BMP_temperature;BMP_pressure;BME280_temperature;BME280_humidity;BME280_pressure;Samples;Min_cycle;Max_cycle;Signal;HPM_P1;HPM_P2
2021/10/27 04:17:35;;;;;;;1.33;1.20;;;;;;;4.75;100.00;99803.25;4878188;29;20093;-76
2021/10/27 04:20:04;;;;;;;1.30;1.20;;;;;;;4.74;100.00;99804.09;4879384;29;20101;-76
2021/10/27 04:22:30;;;;;;;0.73;0.73;;;;;;;4.52;100.00;99802.72;4879177;29;20029;-76
2021/10/27 04:24:55;;;;;;;1.15;1.05;;;;;;;4.51;100.00;99802.69;4879328;29;20478;-76
2021/10/27 04:27:22;;;;;;;0.90;0.90;;;;;;;4.64;100.00;99804.69;4879115;29;20029;-76
2021/10/27 04:29:47;;;;;;;1.42;1.05;;;;;;;4.80;100.00;99806.78;4879267;29;20060;-76
2021/10/27 04:32:13;;;;;;;1.02;0.98;;;;;;;4.87;100.00;99818.91;4893154;23;20517;-71
2021/10/27 04:34:38;;;;;;;0.88;0.82;;;;;;;4.85;100.00;99807.75;4879192;29;20099;-71
2021/10/27 04:37:04;;;;;;;0.80;0.80;;;;;;;4.70;100.00;99804.84;4879003;29;20120;-71
2021/10/27 04:39:30;;;;;;;0.90;0.90;;;;;;;4.70;100.00;99803.97;4879109;29;20490;-71
2021/10/27 04:41:56;;;;;;;0.93;0.93;;;;;;;4.73;100.00;99804.91;4885795;29;20044;-71
2021/10/27 04:44:21;;;;;;;1.17;1.17;;;;;;;4.75;100.00;99797.25;4889229;29;20447;-72
2021/10/27 04:46:47;;;;;;;1.08;0.98;;;;;;;4.79;100.00;99799.91;4897698;29;20103;-70
2021/10/27 04:49:12;;;;;;;0.90;0.90;;;;;;;4.82;100.00;99799.97;4897513;29;20485;-73
2021/10/27 04:51:37;;;;;;;3.72;1.90;;;;;;;4.76;100.00;99810.09;4897215;29;20052;-70
2021/10/27 04:54:03;;;;;;;1.90;1.80;;;;;;;4.77;100.00;99804.13;4897549;29;20024;-71
2021/10/27 04:56:30;;;;;;;1.02;1.02;;;;;;;4.63;100.00;99800.41;4897433;29;20024;-72
2021/10/27 04:58:55;;;;;;;1.60;1.60;;;;;;;4.61;100.00;99805.50;4897788;29;20141;-71
2021/10/27 05:01:20;;;;;;;1.42;1.42;;;;;;;4.49;100.00;99809.47;4897172;29;20042;-71
2021/10/27 05:03:46;;;;;;;2.53;2.20;;;;;;;4.54;100.00;99805.31;4897108;29;20029;-71
2021/10/27 05:06:12;;;;;;;1.50;1.27;;;;;;;4.62;100.00;99803.81;4897391;29;20419;-71
2021/10/27 05:08:38;;;;;;;1.45;1.35;;;;;;;4.61;100.00;99800.38;4897367;29;20024;-71
2021/10/27 05:11:04;;;;;;;6.72;1.73;;;;;;;4.68;100.00;99800.50;4894822;29;20115;-71
2021/10/27 05:13:29;;;;;;;1.23;1.13;;;;;;;4.65;100.00;99796.19;4889110;29;20103;-71
2021/10/27 05:15:55;;;;;;;1.65;1.55;;;;;;;4.64;100.00;99794.41;4897171;29;20405;-71
2021/10/27 05:18:20;;;;;;;0.93;0.93;;;;;;;4.52;100.00;99794.16;4897149;29;20035;-72
2021/10/27 05:20:46;;;;;;;2.33;1.52;;;;;;;4.58;100.00;99791.72;4896880;29;20393;-71
2021/10/27 05:23:13;;;;;;;1.00;1.00;;;;;;;4.64;100.00;99795.31;4896902;29;20046;-71
2021/10/27 05:25:38;;;;;;;2.63;2.35;;;;;;;4.59;100.00;99790.88;4897126;29;20021;-71
2021/10/27 05:28:04;;;;;;;0.95;0.93;;;;;;;4.71;100.00;99796.31;4897165;29;20092;-71
2021/10/27 05:30:29;;;;;;;2.88;2.67;;;;;;;4.59;100.00;99790.88;4896699;29;20020;-71
2021/10/27 05:32:57;;;;;;;1.25;1.20;;;;;;;4.68;100.00;99792.81;4896769;29;20394;-72
2021/10/27 05:35:27;;;;;;;1.48;1.38;;;;;;;4.67;100.00;99796.22;4896778;29;20029;-71
2021/10/27 05:37:54;;;;;;;2.00;1.90;;;;;;;4.60;100.00;99793.50;4896937;29;20076;-71
2021/10/27 05:40:21;;;;;;;2.05;1.92;;;;;;;4.57;100.00;99797.69;4896752;29;20438;-72
2021/10/27 05:42:47;;;;;;;0.80;0.80;;;;;;;4.45;100.00;99802.53;4888343;29;20069;-71
2021/10/27 05:45:13;;;;;;;0.88;0.88;;;;;;;4.55;100.00;99807.09;4895109;29;20036;-71
2021/10/27 05:47:43;;;;;;;1.95;1.85;;;;;;;4.41;100.00;99805.91;4896774;29;20445;-71
2021/10/27 05:50:26;;;;;;;1.50;1.35;;;;;;;4.42;100.00;99805.06;4896682;29;20528;-71
2021/10/27 05:55:36;;;;;;;1.42;1.38;;;;;;;4.31;100.00;99815.06;4898533;29;20068;-72
2021/10/27 05:58:03;;;;;;;1.55;1.42;;;;;;;4.33;100.00;99816.81;4900547;29;20033;-71
2021/10/27 06:00:29;;;;;;;0.95;0.95;;;;;;;4.37;100.00;99821.19;4900407;29;20040;-71
2021/10/27 06:02:54;;;;;;;1.63;1.52;;;;;;;4.34;100.00;99821.13;4900312;29;20038;-71
2021/10/27 06:05:20;;;;;;;1.58;1.48;;;;;;;4.37;100.00;99825.47;4900442;29;20032;-71
2021/10/27 06:07:46;;;;;;;1.92;1.83;;;;;;;4.30;100.00;99821.91;4900374;29;20565;-71
2021/10/27 06:10:18;;;;;;;2.58;2.10;;;;;;;4.36;100.00;99824.59;4900371;29;20414;-71
2021/10/27 06:12:44;;;;;;;1.38;1.35;;;;;;;4.32;100.00;99827.06;4891957;29;20467;-71
2021/10/27 06:15:10;;;;;;;1.10;1.10;;;;;;;4.41;100.00;99821.28;4898444;29;20123;-71
2021/10/27 06:17:36;;;;;;;1.23;1.17;;;;;;;4.46;100.00;99820.56;4900215;29;20028;-71
2021/10/27 06:20:02;;;;;;;2.05;1.55;;;;;;;4.36;100.00;99814.34;4900244;29;20059;-71
2021/10/27 06:22:28;;;;;;;3.03;1.92;;;;;;;4.33;100.00;99824.53;4899723;29;20032;-72
2021/10/27 06:24:54;;;;;;;1.83;1.73;;;;;;;4.43;100.00;99832.44;4900199;29;20052;-71
2021/10/27 06:27:20;;;;;;;1.25;1.25;;;;;;;4.42;100.00;99830.72;4899936;29;20032;-72
2021/10/27 06:29:55;;;;;;;1.40;1.30;;;;;;;4.50;100.00;99829.22;4900288;29;20036;-71
2021/10/27 06:35:07;;;;;;;1.02;1.02;;;;;;;4.81;100.00;99834.19;4900099;29;20029;-71
2021/10/27 06:48:07;;;;;;;2.15;1.85;;;;;;;5.00;100.00;99839.72;4899586;29;20088;-71
2021/10/27 06:50:33;;;;;;;1.63;1.52;;;;;;;4.99;100.00;99840.56;4899809;29;20053;-71
2021/10/27 06:52:59;;;;;;;2.33;2.13;;;;;;;4.70;100.00;99840.78;4899494;29;20033;-72
2021/10/27 06:55:25;;;;;;;1.65;1.55;;;;;;;4.77;100.00;99845.22;4899625;29;20111;-71
2021/10/27 06:57:50;;;;;;;1.67;1.58;;;;;;;4.72;100.00;99844.25;4899520;29;20096;-71
2021/10/27 07:01:02;;;;;;;1.00;1.00;;;;;;;4.69;100.00;99843.28;4899931;29;20060;-71
2021/10/27 07:16:08;;;;;;;1.33;1.33;;;;;;;4.63;100.00;99868.00;4899529;29;20513;-71
2021/10/27 07:18:33;;;;;;;1.85;1.75;;;;;;;4.85;100.00;99866.81;4899164;29;20025;-71
2021/10/27 07:20:59;;;;;;;2.38;2.28;;;;;;;5.08;100.00;99874.16;4899149;29;20124;-71
2021/10/27 07:23:24;;;;;;;2.08;1.88;;;;;;;5.15;100.00;99869.16;4898925;29;20060;-71
2021/10/27 07:25:57;;;;;;;2.45;2.25;;;;;;;5.14;100.00;99874.28;4898951;29;20394;-71
2021/10/27 07:28:25;;;;;;;2.58;2.38;;;;;;;5.17;100.00;99871.75;4899221;29;20025;-71
2021/10/27 07:30:51;;;;;;;2.30;2.20;;;;;;;5.40;100.00;99865.41;4898587;29;20514;-71
2021/10/27 07:33:16;;;;;;;1.60;1.50;;;;;;;5.36;100.00;99867.88;4898802;29;20021;-71
2021/10/27 07:35:47;;;;;;;3.20;2.90;;;;;;;5.69;100.00;99870.25;4898846;29;20033;-72
2021/10/27 07:40:56;;;;;;;2.00;1.77;;;;;;;5.44;100.00;99874.03;4897063;29;20036;-71
2021/10/27 07:43:26;;;;;;;1.88;1.77;;;;;;;5.36;100.00;99870.44;4889989;29;20088;-71
2021/10/27 07:45:53;;;;;;;3.78;2.72;;;;;;;5.63;100.00;99871.00;4898713;29;20486;-71
2021/10/27 07:48:18;;;;;;;2.15;1.95;;;;;;;5.72;100.00;99875.47;4898603;29;20406;-71
2021/10/27 07:50:44;;;;;;;2.05;1.88;;;;;;;5.71;100.00;99878.00;4898440;29;20052;-71
2021/10/27 07:53:11;;;;;;;3.00;2.70;;;;;;;6.18;100.00;99868.59;4898468;29;20035;-71
2021/10/27 07:55:43;;;;;;;2.70;1.75;;;;;;;5.95;100.00;99872.47;4898565;29;20025;-71
2021/10/27 07:58:09;;;;;;;3.20;2.92;;;;;;;6.16;100.00;99875.44;4898619;29;20029;-71
2021/10/27 08:00:35;;;;;;;2.35;2.15;;;;;;;5.99;100.00;99874.25;4898298;29;20039;-71
2021/10/27 08:03:01;;;;;;;1.98;1.77;;;;;;;5.96;100.00;99874.22;4898104;29;20372;-71
2021/10/27 08:05:29;;;;;;;6.28;2.88;;;;;;;5.89;100.00;99874.06;4898448;29;20028;-71
2021/10/27 08:07:54;;;;;;;1.50;1.45;;;;;;;6.35;100.00;99872.34;4898365;29;20032;-72
2021/10/27 08:10:20;;;;;;;2.47;2.17;;;;;;;6.31;100.00;99873.13;4898383;29;20020;-72
2021/10/27 08:12:47;;;;;;;2.58;2.45;;;;;;;6.30;100.00;99876.53;4889720;29;20497;-72
2021/10/27 08:15:14;;;;;;;1.48;1.45;;;;;;;6.69;100.00;99870.28;4895024;29;20470;-73
2021/10/27 08:17:40;;;;;;;1.58;1.52;;;;;;;6.54;100.00;99885.50;4897927;29;20032;-73
2021/10/27 08:20:07;;;;;;;2.15;2.05;;;;;;;6.41;100.00;99875.00;4897112;29;20028;-73
2021/10/27 08:22:33;;;;;;;3.45;2.05;;;;;;;6.61;100.00;99882.19;4897738;29;20044;-73
2021/10/27 08:25:04;;;;;;;3.70;2.63;;;;;;;6.92;100.00;99876.66;4898190;29;20410;-73
2021/10/27 08:27:32;;;;;;;3.45;3.08;;;;;;;7.05;98.98;99887.13;4898270;29;20025;-73
2021/10/27 08:30:03;;;;;;;4.53;2.83;;;;;;;7.07;99.96;99885.44;4897908;29;20032;-73
2021/10/27 08:34:54;;;;;;;2.50;2.30;;;;;;;6.89;100.00;99884.34;4898000;29;20028;-73
2021/10/27 08:37:22;;;;;;;4.20;2.70;;;;;;;7.11;99.50;99884.66;4897727;29;20410;-73
2021/10/27 08:39:47;;;;;;;2.03;1.92;;;;;;;7.04;100.00;99887.97;4897715;29;20036;-73
2021/10/27 08:42:13;;;;;;;2.25;2.05;;;;;;;7.43;99.98;99878.19;4893520;29;20084;-73
2021/10/27 08:44:40;;;;;;;2.92;1.98;;;;;;;7.15;99.59;99876.09;4891669;29;20025;-73
2021/10/27 08:47:07;;;;;;;2.85;2.60;;;;;;;7.18;98.92;99873.56;4897743;29;20028;-73
2021/10/27 08:49:33;;;;;;;2.47;2.28;;;;;;;7.44;99.13;99868.72;4897680;29;20079;-73
2021/10/27 08:52:02;;;;;;;2.35;2.15;;;;;;;7.37;98.34;99870.38;4897294;29;20032;-73
2021/10/27 08:54:29;;;;;;;4.57;3.35;;;;;;;7.51;97.33;99869.69;4897491;29;20028;-73
2021/10/27 08:56:57;;;;;;;3.80;2.63;;;;;;;7.92;97.51;99872.72;4897440;29;20723;-73
2021/10/27 08:59:31;;;;;;;3.25;2.95;;;;;;;8.21;93.56;99867.84;4897281;29;20035;-73
2021/10/27 09:02:25;;;;;;;3.13;1.95;;;;;;;8.88;89.34;99855.47;4895868;29;20454;-71
2021/10/27 09:07:44;;;;;;;2.13;2.00;;;;;;;9.58;84.75;99856.69;4897413;29;20039;-72
2021/10/27 09:14:24;;;;;;;2.50;2.30;;;;;;;9.99;84.50;99855.03;4897073;29;20462;-72
2021/10/27 09:33:55;;;;;;;2.20;1.75;;;;;;;15.02;63.84;99823.06;4878457;29;20085;-74
2021/10/27 09:39:28;;;;;;;2.25;2.03;;;;;;;18.83;52.14;99810.22;4878290;29;20033;-74
2021/10/27 10:06:18;;;;;;;2.72;1.70;;;;;;;22.76;41.78;99780.88;4878176;29;20315;-75
2021/10/27 10:08:45;;;;;;;2.90;1.70;;;;;;;21.35;43.02;99788.69;4877953;29;20032;-75
2021/10/27 10:11:14;;;;;;;2.90;1.90;;;;;;;20.65;45.20;99780.34;4882755;29;20720;-75
2021/10/27 10:13:39;;;;;;;2.33;2.13;;;;;;;22.42;41.97;99776.47;4882573;29;20452;-75
2021/10/27 10:16:06;;;;;;;3.60;2.45;;;;;;;20.75;44.92;99780.81;4895326;29;20131;-75
2021/10/27 10:18:31;;;;;;;1.77;1.52;;;;;;;21.34;43.64;99779.06;4896360;29;20394;-75
2021/10/27 10:20:59;;;;;;;1.98;1.80;;;;;;;20.00;47.25;99778.66;4896406;29;20039;-75
2021/10/27 10:23:25;;;;;;;2.15;1.60;;;;;;;21.20;44.86;99772.63;4896459;29;20029;-75
2021/10/27 10:25:56;;;;;;;10.38;5.20;;;;;;;22.30;43.18;99767.41;4896505;29;20390;-75
2021/10/27 10:28:26;;;;;;;3.33;1.58;;;;;;;21.38;44.81;99759.56;4896331;29;20035;-75
2021/10/27 10:30:58;;;;;;;1.92;1.58;;;;;;;21.17;44.69;99762.19;4896749;29;20049;-72
2021/10/27 10:33:44;;;;;;;15.07;2.20;;;;;;;23.00;41.74;99756.78;4896569;29;20052;-72
2021/10/27 10:36:33;;;;;;;2.20;1.92;;;;;;;23.34;40.45;99754.00;4896625;29;20032;-72
2021/10/27 10:56:19;;;;;;;1.60;1.23;;;;;;;24.44;39.26;99727.53;4899575;29;20307;-72
2021/10/27 11:01:50;;;;;;;2.83;1.35;;;;;;;25.42;37.32;99721.47;4899477;29;20044;-72
2021/10/27 11:24:32;;;;;;;0.47;0.30;;;;;;;24.97;34.75;99699.53;4899191;29;20105;-72
2021/10/27 11:27:12;;;;;;;0.65;0.40;;;;;;;27.14;31.62;99690.34;4898885;29;20032;-72
2021/10/27 11:40:32;;;;;;;0.30;0.30;;;;;;;25.38;32.86;99667.72;4897043;29;20033;-72
2021/10/27 11:43:16;;;;;;;3.08;1.30;;;;;;;26.05;32.34;99667.75;4879537;29;20039;-72
2021/10/27 11:48:25;;;;;;;3.80;0.88;;;;;;;25.63;31.78;99661.69;4879843;29;20542;-72
2021/10/27 11:50:50;;;;;;;0.32;0.32;;;;;;;25.52;31.50;99654.41;4879953;29;20033;-72
2021/10/27 11:53:27;;;;;;;0.13;0.13;;;;;;;26.53;29.93;99652.09;4879463;29;20109;-72
2021/10/27 11:55:54;;;;;;;0.10;0.10;;;;;;;25.96;32.06;99649.78;4879931;29;20078;-72
2021/10/27 11:58:20;;;;;;;0.17;0.17;;;;;;;26.88;31.09;99647.81;4879669;29;20037;-72
2021/10/27 12:00:57;;;;;;;0.45;0.30;;;;;;;25.65;31.51;99643.84;4879603;29;20394;-72
2021/10/27 12:03:25;;;;;;;0.22;0.20;;;;;;;25.99;31.53;99642.47;4879367;29;20493;-71
2021/10/27 12:05:57;;;;;;;0.30;0.30;;;;;;;23.66;34.58;99644.72;4879985;29;20033;-71
2021/10/27 12:19:15;;;;;;;0.47;0.47;;;;;;;18.50;47.48;99631.97;4898055;29;20032;-71
2021/10/27 12:21:51;;;;;;;0.80;0.47;;;;;;;18.48;46.77;99628.56;4883714;29;20047;-72
2021/10/27 12:24:21;;;;;;;0.60;0.60;;;;;;;18.28;47.00;99628.41;4886223;29;20303;-72
2021/10/27 12:26:59;;;;;;;0.43;0.43;;;;;;;18.33;47.47;99616.84;4873598;29;20032;-72
2021/10/27 12:29:26;;;;;;;6.22;3.28;;;;;;;18.26;48.04;99609.25;4878316;29;20049;-72
2021/10/27 12:32:11;;;;;;;0.50;0.50;;;;;;;17.73;47.27;99608.41;4886289;29;20076;-72
2021/10/27 12:35:07;;;;;;;0.25;0.25;;;;;;;17.31;48.73;99607.19;4878871;29;20072;-72
2021/10/27 12:37:38;;;;;;;0.30;0.30;;;;;;;17.23;48.71;99603.97;4878591;29;20415;-72
2021/10/27 12:40:19;;;;;;;0.68;0.68;;;;;;;17.51;48.74;99602.16;4872624;29;20108;-72
2021/10/27 12:42:45;;;;;;;0.30;0.30;;;;;;;17.47;48.43;99600.56;4889526;29;20107;-72
2021/10/27 12:45:11;;;;;;;0.45;0.45;;;;;;;17.62;48.42;99601.81;4895462;29;20394;-72
2021/10/27 12:47:39;;;;;;;4.28;3.03;;;;;;;17.35;47.54;99591.31;4897703;29;20032;-72
2021/10/27 12:50:12;;;;;;;0.63;0.63;;;;;;;17.10;48.11;99593.00;4897547;29;20522;-72
2021/10/27 12:52:43;;;;;;;0.17;0.17;;;;;;;17.02;48.68;99579.28;4897249;29;20032;-72
2021/10/27 12:55:24;;;;;;;0.45;0.45;;;;;;;17.14;47.86;99577.16;4897392;29;20486;-72
2021/10/27 12:57:58;;;;;;;0.32;0.30;;;;;;;17.05;47.45;99574.81;4897455;29;20039;-72
2021/10/27 13:00:36;;;;;;;0.50;0.50;;;;;;;17.50;47.65;99571.59;4894231;29;20115;-72
2021/10/27 13:03:25;;;;;;;3.40;0.60;;;;;;;17.25;46.77;99570.72;4915963;29;20028;-72
2021/10/27 13:05:57;;;;;;;1.00;0.35;;;;;;;17.08;47.90;99574.75;4915725;29;20034;-72
2021/10/27 13:11:38;;;;;;;0.38;0.38;;;;;;;17.09;48.61;99570.34;4909806;29;20099;-72
2021/10/27 13:16:31;;;;;;;0.30;0.30;;;;;;;17.41;48.25;99562.31;4916445;29;20111;-72
2021/10/27 13:21:43;;;;;;;0.85;0.82;;;;;;;17.30;48.31;99560.94;4915889;29;20031;-72
2021/10/27 13:32:03;;;;;;;0.45;0.45;;;;;;;17.30;48.48;99547.84;4915587;29;20524;-72
2021/10/27 13:34:29;;;;;;;0.30;0.30;;;;;;;17.20;49.21;99548.13;4915584;29;20052;-72
2021/10/27 13:36:55;;;;;;;1.10;0.38;;;;;;;17.29;48.52;99549.59;4915855;29;20028;-72
2021/10/27 13:39:22;;;;;;;1.27;0.70;;;;;;;17.32;48.86;99551.28;4914735;29;20024;-72
2021/10/27 13:41:57;;;;;;;0.50;0.50;;;;;;;17.18;48.68;99544.72;4907403;29;20032;-72
2021/10/27 13:44:27;;;;;;;0.47;0.47;;;;;;;17.00;49.17;99544.47;4908078;29;20521;-72
2021/10/27 14:08:18;;;;;;;0.70;0.70;;;;;;;16.97;49.73;99532.34;4896682;29;20048;-70
2021/10/27 14:10:58;;;;;;;0.40;0.40;;;;;;;17.14;50.31;99530.03;4896639;29;20383;-70
2021/10/27 14:40:50;;;;;;;0.52;0.50;;;;;;;16.43;50.45;99506.91;4900806;29;20031;-75
2021/10/27 15:21:25;;;;;;;0.98;0.93;;;;;;;15.35;56.88;99474.22;4898843;29;20103;-72
2021/10/27 15:24:17;;;;;;;0.68;0.68;;;;;;;15.31;57.01;99469.97;4899103;29;20107;-72
2021/10/27 15:29:59;;;;;;;1.33;1.23;;;;;;;15.10;59.40;99467.03;4898558;29;20048;-72
2021/10/27 15:32:36;;;;;;;1.63;0.95;;;;;;;15.00;60.13;99465.53;4898364;29;20033;-72
2021/10/27 15:35:19;;;;;;;1.00;0.85;;;;;;;14.78;61.70;99459.13;4898953;29;20033;-71
2021/10/27 15:43:26;;;;;;;2.88;2.53;;;;;;;14.23;65.67;99460.38;4907542;29;20088;-71
2021/10/27 15:51:05;;;;;;;1.40;1.30;;;;;;;13.48;69.95;99467.94;4918069;29;20389;-71
2021/10/27 15:53:30;;;;;;;2.97;1.73;;;;;;;13.13;72.67;99464.19;4917346;29;20116;-71
2021/10/27 15:55:56;;;;;;;0.77;0.57;;;;;;;13.08;73.14;99466.03;4917459;29;20103;-71
2021/10/27 15:58:22;;;;;;;1.52;1.17;;;;;;;12.95;73.88;99461.91;4917230;29;20083;-71
2021/10/27 16:00:47;;;;;;;3.97;2.50;;;;;;;12.83;74.38;99464.72;4917445;29;20056;-75
2021/10/27 16:03:15;;;;;;;6.03;4.47;;;;;;;12.67;75.43;99458.91;4917138;29;20052;-71
2021/10/27 16:05:43;;;;;;;4.63;3.03;;;;;;;12.63;75.28;99456.38;4917154;29;20099;-71
2021/10/27 16:08:12;;;;;;;1.30;1.15;;;;;;;12.40;76.84;99461.91;4917300;29;20032;-71
2021/10/27 16:10:38;;;;;;;0.75;0.68;;;;;;;12.18;77.52;99462.19;4916897;29;20028;-72
2021/10/27 16:13:05;;;;;;;0.95;0.95;;;;;;;12.23;77.02;99467.31;4906439;29;20052;-66
2021/10/27 16:15:42;;;;;;;0.50;0.50;;;;;;;12.06;78.28;99459.78;4915634;29;20051;-67
2021/10/27 16:18:11;;;;;;;0.60;0.60;;;;;;;11.93;78.84;99466.00;4906406;29;20033;-69
2021/10/27 16:20:37;;;;;;;13.13;1.60;;;;;;;11.94;79.23;99466.00;4916726;29;20521;-68
2021/10/27 16:23:04;;;;;;;3.38;1.55;;;;;;;11.77;79.71;99473.09;4916641;29;20758;-68
2021/10/27 16:25:29;;;;;;;3.58;2.15;;;;;;;11.70;79.53;99471.41;4915599;29;20476;-74
2021/10/27 16:27:56;;;;;;;8.35;2.25;;;;;;;11.76;79.69;99476.56;4916861;29;20116;-71
2021/10/27 16:30:22;;;;;;;1.92;1.83;;;;;;;11.70;79.27;99474.00;4916514;29;20024;-70
2021/10/27 16:32:47;;;;;;;2.15;1.70;;;;;;;11.65;79.39;99483.59;4938846;23;20052;-75
2021/10/27 16:35:13;;;;;;;4.32;2.47;;;;;;;11.56;80.10;99487.16;4897761;29;20512;-75
2021/10/27 16:37:39;;;;;;;2.08;1.50;;;;;;;11.49;80.07;99472.53;4897805;29;20072;-75
2021/10/27 16:40:05;;;;;;;8.90;4.88;;;;;;;11.31;81.64;99483.94;4897997;29;20033;-75
2021/10/27 16:42:32;;;;;;;5.05;3.85;;;;;;;11.15;81.94;99483.22;4896568;29;20032;-76
2021/10/27 16:44:58;;;;;;;4.00;2.28;;;;;;;11.06;82.09;99484.16;4897560;29;20043;-75
2021/10/27 16:47:24;;;;;;;10.32;2.95;;;;;;;10.85;83.05;99492.13;4897589;29;20028;-75
2021/10/27 16:49:50;;;;;;;1.60;1.50;;;;;;;10.75;83.66;99493.06;4897627;29;20032;-75
2021/10/27 16:52:16;;;;;;;1.65;1.55;;;;;;;10.49;84.98;99488.94;4897225;29;20112;-75
2021/10/27 16:54:41;;;;;;;1.00;0.90;;;;;;;10.39;85.40;99492.41;4897574;29;20035;-75
2021/10/27 16:57:06;;;;;;;0.95;0.90;;;;;;;10.34;85.72;99494.19;4897457;29;20024;-75
2021/10/27 16:59:32;;;;;;;3.28;2.75;;;;;;;10.24;85.80;99501.13;4897529;29;20107;-75
2021/10/27 17:01:57;;;;;;;5.18;4.05;;;;;;;10.05;86.48;99500.31;4897179;29;20032;-75
2021/10/27 17:04:23;;;;;;;7.80;4.50;;;;;;;9.96;87.35;99502.97;4897294;29;20033;-75
2021/10/27 17:06:48;;;;;;;5.03;4.47;;;;;;;9.98;87.60;99509.00;4897353;29;20112;-75
2021/10/27 17:09:13;;;;;;;6.00;3.47;;;;;;;9.87;88.86;99505.59;4897253;29;20032;-75
2021/10/27 17:11:40;;;;;;;12.40;2.90;;;;;;;9.87;88.70;99508.19;4896928;29;20528;-75
2021/10/27 17:14:05;;;;;;;3.33;2.53;;;;;;;9.78;89.38;99510.78;4896176;29;20518;-75
2021/10/27 17:16:33;;;;;;;1.95;1.80;;;;;;;9.74;90.01;99509.09;4895936;29;20016;-75
2021/10/27 17:18:59;;;;;;;1.50;1.40;;;;;;;9.77;89.77;99519.44;4897076;29;20506;-75
2021/10/27 17:21:24;;;;;;;1.83;1.70;;;;;;;9.68;90.25;99515.13;4896908;29;20037;-75
2021/10/27 17:23:53;;;;;;;0.80;0.80;;;;;;;9.57;90.54;99516.00;4897066;29;20466;-73
2021/10/27 17:26:19;;;;;;;0.98;0.98;;;;;;;9.62;90.73;99512.56;4897180;29;20112;-75
2021/10/27 17:28:45;;;;;;;1.73;1.58;;;;;;;9.57;91.03;99516.00;4896381;29;20064;-75
2021/10/27 17:31:11;;;;;;;1.05;0.95;;;;;;;9.42;90.58;99511.72;4896307;29;20064;-75
2021/10/27 17:33:37;;;;;;;2.03;1.80;;;;;;;9.45;91.97;99512.59;4897055;29;20021;-75
2021/10/27 17:36:05;;;;;;;1.65;1.52;;;;;;;9.40;91.86;99519.50;4896892;29;20108;-75
2021/10/27 17:38:32;;;;;;;2.40;1.80;;;;;;;9.43;92.49;99513.47;4896952;29;20024;-75
2021/10/27 17:40:58;;;;;;;2.30;2.00;;;;;;;9.38;93.00;99516.06;4896165;29;20402;-75
2021/10/27 17:43:24;;;;;;;5.68;2.03;;;;;;;9.46;94.05;99519.47;4896483;29;20039;-75
2021/10/27 17:45:50;;;;;;;1.88;1.70;;;;;;;9.37;94.31;99524.66;4896786;29;20032;-75
2021/10/27 17:48:31;;;;;;;2.22;2.03;;;;;;;9.28;94.09;99524.66;4896051;29;20088;-75
2021/10/27 17:51:17;;;;;;;2.40;2.20;;;;;;;9.21;94.88;99523.81;4897223;29;20029;-75
2021/10/27 17:59:11;;;;;;;5.25;3.38;;;;;;;8.94;95.54;99527.25;4900587;29;20401;-75
2021/10/27 18:01:36;;;;;;;3.63;3.33;;;;;;;8.92;95.39;99535.88;4900537;29;20024;-76
2021/10/27 18:04:04;;;;;;;6.28;3.83;;;;;;;8.85;96.29;99522.09;4899857;29;20032;-75
2021/10/27 18:06:31;;;;;;;11.82;7.20;;;;;;;8.68;95.92;99523.78;4900629;29;20024;-75
2021/10/27 18:08:56;;;;;;;6.03;3.63;;;;;;;8.68;95.86;99526.38;4900335;29;20103;-76
2021/10/27 18:11:24;;;;;;;3.28;2.97;;;;;;;8.75;96.63;99522.94;4902475;29;20068;-75
2021/10/27 18:14:15;;;;;;;2.53;2.33;;;;;;;8.70;98.25;99519.47;4908082;29;20016;-75
2021/10/27 18:16:49;;;;;;;1.50;1.38;;;;;;;8.64;98.50;99524.63;4893295;29;20043;-73
2021/10/27 18:19:33;;;;;;;3.20;2.00;;;;;;;8.54;99.28;99523.75;4914051;29;20032;-73
2021/10/27 18:22:07;;;;;;;3.10;1.60;;;;;;;8.52;99.39;99524.63;4899951;29;20375;-73
2021/10/27 18:27:35;;;;;;;2.78;2.33;;;;;;;8.36;99.83;99532.31;4900392;29;20083;-75
2021/10/27 18:38:20;;;;;;;4.15;3.03;;;;;;;8.19;99.59;99518.47;4900149;29;20039;-75
2021/10/27 18:43:14;;;;;;;2.50;2.28;;;;;;;8.09;99.79;99514.13;4899708;29;20470;-75
2021/10/27 18:45:41;;;;;;;5.75;3.05;;;;;;;8.07;99.96;99513.25;4899721;29;20052;-75
2021/10/27 18:48:10;;;;;;;4.30;3.63;;;;;;;8.05;100.00;99512.41;4899736;29;20024;-75
2021/10/27 18:50:50;;;;;;;3.80;2.08;;;;;;;7.96;100.00;99516.66;4899644;29;20500;-75
2021/10/27 18:53:31;;;;;;;3.65;2.38;;;;;;;7.94;100.00;99518.38;4899682;29;20035;-75
2021/10/27 19:11:48;;;;;;;5.65;3.25;;;;;;;7.66;100.00;99512.22;4899073;29;20402;-77
2021/10/27 19:16:58;;;;;;;5.38;2.58;;;;;;;7.61;100.00;99507.88;4888473;29;20055;-77
2021/10/27 19:19:24;;;;;;;2.00;1.60;;;;;;;7.62;100.00;99509.59;4904777;29;20483;-77
2021/10/27 19:21:49;;;;;;;1.85;1.75;;;;;;;7.67;100.00;99507.91;4879528;29;20105;-77
2021/10/27 19:24:28;;;;;;;2.17;2.05;;;;;;;7.69;100.00;99501.06;4880248;29;20033;-77
2021/10/27 19:26:58;;;;;;;1.52;1.42;;;;;;;7.71;100.00;99501.91;4880552;29;20399;-77
2021/10/27 19:29:28;;;;;;;1.58;1.48;;;;;;;7.75;100.00;99502.81;4880302;29;20037;-77
2021/10/27 19:32:09;;;;;;;5.55;2.30;;;;;;;7.81;100.00;99503.69;4880065;29;20040;-77
2021/10/27 19:34:56;;;;;;;2.92;1.50;;;;;;;7.85;100.00;99499.41;4880223;29;20029;-77
2021/10/27 20:07:30;;;;;;;3.28;2.95;;;;;;;7.12;100.00;99495.53;4879054;29;20483;-75
2021/10/27 20:10:12;;;;;;;9.18;4.88;;;;;;;7.14;100.00;99495.53;4894125;29;20032;-75
2021/10/27 20:50:33;;;;;;;1.75;1.60;;;;;;;6.67;100.00;99485.69;4878737;29;20044;-74
2021/10/27 20:55:27;;;;;;;2.28;2.08;;;;;;;6.59;100.00;99489.94;4878787;29;20033;-74
2021/10/27 20:58:03;;;;;;;2.80;1.92;;;;;;;6.57;100.00;99489.91;4878719;29;20025;-75
2021/10/27 21:00:36;;;;;;;6.28;2.03;;;;;;;6.53;100.00;99482.16;4878669;29;20052;-75
2021/10/27 21:13:58;;;;;;;2.90;2.55;;;;;;;6.47;100.00;99482.94;4889408;29;20061;-75
2021/10/27 21:16:24;;;;;;;1.80;1.70;;;;;;;6.40;100.00;99486.31;4897220;29;20067;-75
2021/10/27 21:18:50;;;;;;;1.95;1.85;;;;;;;6.32;100.00;99488.78;4896857;29;20533;-75
2021/10/27 21:21:15;;;;;;;2.45;2.25;;;;;;;6.25;100.00;99489.59;4896939;29;20068;-74
2021/10/27 21:23:41;;;;;;;2.47;2.28;;;;;;;6.17;100.00;99488.63;4896979;29;20033;-74
2021/10/27 21:26:06;;;;;;;2.92;1.95;;;;;;;6.13;100.00;99487.72;4896588;29;20107;-75
2021/10/27 21:44:47;;;;;;;5.78;3.83;;;;;;;5.89;100.00;99471.97;4885993;29;20059;-74
2021/10/27 21:47:13;;;;;;;2.70;2.50;;;;;;;5.89;100.00;99467.69;4896789;29;20111;-74
2021/10/27 21:49:40;;;;;;;2.05;1.95;;;;;;;5.93;100.00;99469.50;4896784;29;20108;-74
2021/10/27 21:52:06;;;;;;;1.83;1.35;;;;;;;5.92;100.00;99465.22;4896604;29;20025;-74
2021/10/27 21:54:32;;;;;;;1.85;1.75;;;;;;;5.90;100.00;99459.16;4896671;29;20020;-75
2021/10/27 21:56:57;;;;;;;2.30;1.60;;;;;;;5.90;100.00;99459.16;4896673;29;20051;-77
2021/10/27 21:59:23;;;;;;;2.05;1.95;;;;;;;5.85;100.00;99460.81;4896672;29;20062;-77
2021/10/27 22:01:51;;;;;;;2.78;1.92;;;;;;;5.78;100.00;99464.16;4896357;29;20521;-77
2021/10/27 22:04:17;;;;;;;1.05;1.05;;;;;;;5.78;100.00;99448.72;4896669;29;20137;-77
2021/10/27 22:06:42;;;;;;;1.88;1.77;;;;;;;5.77;100.00;99443.56;4896667;29;20108;-77
2021/10/27 22:09:07;;;;;;;2.22;1.88;;;;;;;5.70;100.00;99445.19;4896650;29;20035;-77
2021/10/27 22:11:34;;;;;;;2.88;2.40;;;;;;;5.69;100.00;99443.47;4893658;29;20021;-77
2021/10/27 22:14:00;;;;;;;1.63;1.52;;;;;;;5.70;100.00;99447.75;4888734;29;20045;-77
2021/10/27 22:16:25;;;;;;;2.92;2.58;;;;;;;5.61;100.00;99450.25;4896589;29;20100;-77
2021/10/27 22:18:51;;;;;;;5.88;2.03;;;;;;;5.55;100.00;99445.00;4896622;29;20063;-77
2021/10/27 22:21:16;;;;;;;1.60;1.50;;;;;;;5.52;100.00;99437.25;4896278;29;20455;-77
2021/10/27 22:23:42;;;;;;;2.60;2.38;;;;;;;5.50;100.00;99441.50;4895207;29;20077;-77
2021/10/27 22:26:07;;;;;;;5.68;2.22;;;;;;;5.40;100.00;99441.38;4896596;29;20028;-77
2021/10/27 22:28:35;;;;;;;2.08;1.90;;;;;;;5.36;100.00;99442.19;4896438;29;20107;-77
2021/10/27 22:31:01;;;;;;;2.72;2.53;;;;;;;5.43;100.00;99439.72;4896295;29;20040;-76
2021/10/27 22:33:27;;;;;;;3.55;2.20;;;;;;;5.41;100.00;99437.09;4896324;29;20071;-77
2021/10/27 22:35:53;;;;;;;1.92;1.80;;;;;;;5.43;100.00;99434.56;4896432;29;20032;-77
2021/10/27 22:38:18;;;;;;;3.67;2.10;;;;;;;5.45;100.00;99440.59;4896122;29;20048;-77
2021/10/27 22:40:44;;;;;;;1.70;1.60;;;;;;;5.45;100.00;99445.72;4900149;29;20537;-75